Time;durP1;ratioP1;P1;durP2;ratioP2;P2;SDS_P1;SDS_P2;PMS_P1;PMS_P2;Temp;Humidity;BMP_temperature;BMP_pressure;BME280_temperature;BME280_humidity;BME280_pressure;Samples;Min_cycle;Max_cycle;Signal;HPM_P1;HPM_P2
2023/03/07 00:01:27;;;;;;;11.90;8.23;;;4.50;99.90;;;;;;5089962;28;20496;-77
2023/03/07 00:03:53;;;;;;;11.15;8.07;;;4.50;1.00;;;;;;5089891;28;20397;-78
2023/03/07 00:06:19;;;;;;;11.50;8.73;;;4.50;1.00;;;;;;5089762;28;20382;-77
2023/03/07 00:08:51;;;;;;;10.77;8.68;;;4.60;1.00;;;;;;5089903;28;20389;-77
2023/03/07 00:11:18;;;;;;;10.10;7.43;;;4.30;99.90;;;;;;5089082;28;20378;-77
2023/03/07 00:13:44;;;;;;;9.77;7.75;;;4.50;99.90;;;;;;5089176;28;20400;-78
2023/03/07 00:16:13;;;;;;;10.93;8.13;;;4.40;99.90;;;;;;5088205;28;20386;-77
2023/03/07 00:18:40;;;;;;;11.20;7.78;;;;;;;;;;5089826;28;20811;-78
2023/03/07 00:21:09;;;;;;;12.48;7.60;;;4.40;99.90;;;;;;5089404;28;20402;-78
2023/03/07 00:23:36;;;;;;;12.65;8.52;;;4.40;1.00;;;;;;5088145;28;20389;-77
2023/03/07 00:26:03;;;;;;;9.70;7.50;;;4.20;99.90;;;;;;5089298;28;20856;-77
2023/03/07 00:28:29;;;;;;;11.15;8.20;;;6.10;99.90;;;;;;5089627;28;20406;-76
2023/03/07 00:30:59;;;;;;;10.40;7.97;;;4.50;99.90;;;;;;5089823;28;20436;-77
2023/03/07 00:33:25;;;;;;;11.30;8.35;;;4.50;1.00;;;;;;5089684;28;20401;-76
2023/03/07 00:36:02;;;;;;;8.82;7.43;;;4.50;99.90;;;;;;5089097;28;20413;-76
2023/03/07 00:38:30;;;;;;;10.27;7.35;;;4.30;99.90;;;;;;5089618;28;20468;-78
2023/03/07 00:41:10;;;;;;;11.30;8.70;;;4.40;1.00;;;;;;5089591;28;20460;-78
2023/03/07 00:43:36;;;;;;;10.30;7.70;;;4.40;99.90;;;;;;5089686;28;20408;-76
2023/03/07 00:46:02;;;;;;;9.63;8.20;;;4.40;99.90;;;;;;5087986;28;20469;-77
2023/03/07 00:48:28;;;;;;;11.53;8.83;;;4.40;99.90;;;;;;5089280;28;20426;-76
2023/03/07 00:50:55;;;;;;;9.63;7.63;;;4.40;1.00;;;;;;5089632;28;20523;-78
2023/03/07 00:53:21;;;;;;;11.65;7.88;;;6.30;1.00;;;;;;5091797;28;20386;-78
2023/03/07 00:56:01;;;;;;;12.00;8.57;;;4.20;1.00;;;;;;5091764;28;20909;-77
2023/03/07 00:58:30;;;;;;;12.55;8.20;;;4.30;1.00;;;;;;5093365;28;20907;-76
2023/03/07 01:00:56;;;;;;;10.05;8.15;;;4.40;1.00;;;;;;5091385;28;20486;-77
2023/03/07 01:03:22;;;;;;;11.05;8.10;;;4.30;1.00;;;;;;5091959;28;20378;-76
2023/03/07 01:05:49;;;;;;;10.90;7.82;;;4.20;1.00;;;;;;5092013;28;20400;-77
2023/03/07 01:08:15;;;;;;;11.27;8.45;;;4.20;1.00;;;;;;5092737;28;20410;-78
2023/03/07 01:10:42;;;;;;;11.40;8.98;;;4.30;1.00;;;;;;5093325;28;20834;-78
2023/03/07 01:13:08;;;;;;;12.32;9.15;;;4.30;1.00;;;;;;5092882;28;20463;-78
2023/03/07 01:15:35;;;;;;;10.25;7.88;;;4.10;1.00;;;;;;5091492;28;20388;-77
2023/03/07 01:18:00;;;;;;;13.07;9.15;;;4.50;1.00;;;;;;5092344;28;20389;-78
2023/03/07 01:20:26;;;;;;;11.00;8.65;;;4.10;1.00;;;;;;5092446;28;20488;-78
2023/03/07 01:22:51;;;;;;;9.52;7.97;;;4.60;1.00;;;;;;5092423;28;20408;-76
2023/03/07 01:25:17;;;;;;;10.90;8.52;;;4.20;1.00;;;;;;5092608;28;20394;-78
2023/03/07 01:27:42;;;;;;;10.18;7.80;;;4.40;1.00;;;;;;5092568;28;20389;-77
2023/03/07 01:30:09;;;;;;;11.57;8.65;;;3.90;1.00;;;;;;5092869;28;21025;-77
2023/03/07 01:32:34;;;;;;;11.98;9.30;;;4.40;1.00;;;;;;5092711;28;20378;-77
2023/03/07 01:35:00;;;;;;;11.07;8.00;;;4.30;1.00;;;;;;5091856;28;20508;-77
2023/03/07 01:37:26;;;;;;;12.13;8.60;;;4.30;1.00;;;;;;5092035;28;20408;-78
2023/03/07 01:39:52;;;;;;;9.57;8.10;;;4.30;1.00;;;;;;5092583;28;20437;-79
2023/03/07 01:42:19;;;;;;;11.00;8.40;;;6.30;1.00;;;;;;5091255;28;20484;-77
2023/03/07 01:45:11;;;;;;;10.85;8.48;;;4.20;99.90;;;;;;5091143;28;20383;-77
2023/03/07 01:47:36;;;;;;;12.65;7.70;;;4.40;1.00;;;;;;5092030;28;20409;-77
2023/03/07 01:50:06;;;;;;;11.95;8.30;;;4.20;1.00;;;;;;5092224;28;20425;-78
2023/03/07 01:52:37;;;;;;;11.50;8.40;;;4.40;1.00;;;;;;5092489;28;20389;-78
2023/03/07 01:55:10;;;;;;;9.95;7.80;;;4.40;99.90;;;;;;5092277;28;20806;-78
2023/03/07 01:57:38;;;;;;;13.38;8.32;;;4.50;1.00;;;;;;5091878;28;20382;-78
2023/03/07 02:00:10;;;;;;;11.18;8.38;;;4.40;1.00;;;;;;5091641;28;20410;-78
2023/03/07 02:02:38;;;;;;;10.10;7.80;;;4.20;1.00;;;;;;5092115;28;20378;-77
2023/03/07 02:05:17;;;;;;;9.43;8.00;;;4.20;1.00;;;;;;5089958;28;20961;-76
2023/03/07 02:07:47;;;;;;;10.60;7.70;;;4.20;1.00;;;;;;5090657;28;20390;-78
2023/03/07 02:10:14;;;;;;;10.10;7.65;;;4.20;99.90;;;;;;5091956;28;20378;-78
2023/03/07 02:12:41;;;;;;;9.80;8.00;;;4.10;1.00;;;;;;5090429;28;20404;-78
2023/03/07 02:15:11;;;;;;;10.23;7.55;;;4.50;99.90;;;;;;5091824;28;20390;-78
2023/03/07 02:17:41;;;;;;;10.52;7.63;;;4.10;99.90;;;;;;5090163;28;20461;-77
2023/03/07 02:20:21;;;;;;;9.30;7.00;;;4.30;99.90;;;;;;5091867;28;20402;-78
2023/03/07 02:22:48;;;;;;;7.28;6.32;;;;;;;;;;5091748;28;20409;-76
2023/03/07 02:25:30;;;;;;;10.40;7.50;;;4.60;99.90;;;;;;5090109;28;20386;-79
2023/03/07 02:27:57;;;;;;;7.88;6.70;;;4.50;99.90;;;;;;5091775;28;20378;-78
2023/03/07 02:30:22;;;;;;;8.52;6.65;;;4.40;99.90;;;;;;5090316;28;20442;-77
2023/03/07 02:32:48;;;;;;;10.82;6.95;;;4.50;99.90;;;;;;5091412;28;20461;-77
2023/03/07 02:35:20;;;;;;;8.57;7.18;;;3.90;99.90;;;;;;5090264;28;20386;-79
2023/03/07 02:37:51;;;;;;;9.33;7.30;;;4.50;99.90;;;;;;5091364;28;20388;-78
2023/03/07 02:40:19;;;;;;;10.30;7.30;;;4.40;99.90;;;;;;5091559;28;20424;-78
2023/03/07 02:42:46;;;;;;;10.52;7.30;;;4.40;99.90;;;;;;5089843;28;20398;-78
2023/03/07 02:45:15;;;;;;;9.18;7.47;;;4.40;99.90;;;;;;5091308;28;20832;-78
2023/03/07 02:47:44;;;;;;;10.02;7.78;;;5.40;1.00;;;;;;5090462;28;20406;-77
2023/03/07 02:50:11;;;;;;;9.82;7.60;;;4.50;99.90;;;;;;5090946;28;20497;-78
2023/03/07 02:52:37;;;;;;;9.65;7.15;;;4.50;99.90;;;;;;5090016;28;20451;-78
2023/03/07 02:55:03;;;;;;;9.20;7.30;;;4.30;99.90;;;;;;5091072;28;20374;-77
2023/03/07 02:57:29;;;;;;;12.27;7.82;;;4.60;1.00;;;;;;5082719;28;20403;-77
2023/03/07 02:59:54;;;;;;;9.45;7.85;;;4.80;99.90;;;;;;5070931;28;20453;-78
2023/03/07 03:02:20;;;;;;;9.73;7.57;;;4.50;99.90;;;;;;5089487;28;20404;-77
2023/03/07 03:04:45;;;;;;;11.27;7.93;;;4.50;99.90;;;;;;5090863;28;20375;-76
2023/03/07 03:07:11;;;;;;;9.75;7.10;;;4.40;99.90;;;;;;5090646;28;20492;-77
2023/03/07 03:09:36;;;;;;;9.43;7.30;;;4.50;99.90;;;;;;5091001;28;20378;-77
2023/03/07 03:12:02;;;;;;;9.50;7.20;;;4.40;1.00;;;;;;5090844;28;20473;-77
2023/03/07 03:14:27;;;;;;;10.10;7.73;;;4.50;99.90;;;;;;5090349;28;20394;-77
2023/03/07 03:16:53;;;;;;;10.67;7.20;;;4.60;99.90;;;;;;5090115;28;20824;-78
2023/03/07 03:19:19;;;;;;;9.40;7.22;;;4.90;99.90;;;;;;5090634;28;20377;-77
2023/03/07 03:21:44;;;;;;;10.00;7.15;;;4.60;99.90;;;;;;5090697;28;20892;-78
2023/03/07 03:24:10;;;;;;;8.98;7.18;;;4.50;99.90;;;;;;5090548;28;20772;-77
2023/03/07 03:26:36;;;;;;;9.52;7.40;;;4.50;99.90;;;;;;5090311;28;20374;-78
2023/03/07 03:29:03;;;;;;;8.60;7.15;;;4.40;99.90;;;;;;5090203;28;20413;-78
2023/03/07 03:31:30;;;;;;;8.90;6.88;;;4.30;99.90;;;;;;5089106;28;20745;-78
2023/03/07 03:33:57;;;;;;;9.10;7.57;;;4.50;1.00;;;;;;5090360;28;20390;-78
2023/03/07 03:36:24;;;;;;;8.60;6.53;;;4.50;99.90;;;;;;5088877;28;20386;-78
2023/03/07 03:38:58;;;;;;;6.75;6.00;;;4.50;99.90;;;;;;5090432;28;20875;-77
2023/03/07 03:41:24;;;;;;;9.10;6.85;;;4.40;99.90;;;;;;5090326;28;20780;-78
2023/03/07 03:43:50;;;;;;;9.37;6.80;;;4.50;99.90;;;;;;5089944;28;20393;-77
2023/03/07 03:46:18;;;;;;;10.30;7.15;;;4.40;99.90;;;;;;5088124;28;20397;-79
2023/03/07 03:48:44;;;;;;;8.57;6.55;;;4.30;99.90;;;;;;5088446;28;20386;-78
2023/03/07 03:51:15;;;;;;;9.90;7.18;;;4.60;99.90;;;;;;5090306;28;20397;-78
2023/03/07 03:53:41;;;;;;;8.57;6.57;;;4.60;99.90;;;;;;5090317;28;20442;-77
2023/03/07 03:56:10;;;;;;;9.30;7.40;;;4.50;99.90;;;;;;5090003;28;20382;-78
2023/03/07 03:58:37;;;;;;;9.65;7.30;;;4.60;99.90;;;;;;5077424;28;20401;-77
2023/03/07 04:01:04;;;;;;;9.15;7.28;;;4.30;99.90;;;;;;5088649;28;20409;-77
2023/03/07 04:03:32;;;;;;;9.13;7.28;;;4.40;99.90;;;;;;5090092;28;20389;-77
2023/03/07 04:06:07;;;;;;;11.45;7.45;;;4.40;99.90;;;;;;5088491;28;20385;-78
2023/03/07 04:08:34;;;;;;;10.10;7.80;;;4.80;99.90;;;;;;5090168;28;20382;-78
2023/03/07 04:10:59;;;;;;;8.30;6.72;;;4.40;99.90;;;;;;5090008;28;20751;-79
2023/03/07 04:13:25;;;;;;;11.93;7.60;;;4.50;99.90;;;;;;5089950;28;20401;-77
2023/03/07 04:15:53;;;;;;;10.50;7.50;;;4.40;99.90;;;;;;5089732;28;20386;-77
2023/03/07 04:18:19;;;;;;;9.35;6.82;;;4.20;93.80;;;;;;5089980;28;20469;-78
2023/03/07 04:20:46;;;;;;;8.90;6.90;;;4.50;99.90;;;;;;5090037;28;20475;-78
2023/03/07 04:23:11;;;;;;;9.25;6.90;;;4.50;99.90;;;;;;5089715;28;20396;-78
2023/03/07 04:25:37;;;;;;;8.93;7.55;;;5.30;99.90;;;;;;5089680;28;20382;-78
2023/03/07 04:28:03;;;;;;;9.82;7.40;;;4.40;99.90;;;;;;5093170;28;20754;-78
2023/03/07 04:30:28;;;;;;;8.88;7.10;;;4.40;99.90;;;;;;5094172;28;20409;-78
2023/03/07 04:32:54;;;;;;;10.23;6.63;;;4.60;99.90;;;;;;5094507;28;20461;-78
2023/03/07 04:35:19;;;;;;;9.70;7.27;;;4.60;99.90;;;;;;5094567;28;20385;-77
2023/03/07 04:37:45;;;;;;;10.67;7.40;;;4.90;99.90;;;;;;5094422;28;20863;-78
2023/03/07 04:40:11;;;;;;;8.60;7.07;;;4.40;99.90;;;;;;5093586;28;20862;-78
2023/03/07 04:42:36;;;;;;;8.60;7.00;;;4.40;99.90;;;;;;5094379;28;20381;-78
2023/03/07 04:45:02;;;;;;;10.97;8.10;;;4.40;1.00;;;;;;5094046;28;20864;-79
2023/03/07 04:47:28;;;;;;;12.30;7.57;;;4.40;1.00;;;;;;5093869;28;20382;-78
2023/03/07 04:49:53;;;;;;;8.93;7.40;;;4.30;99.90;;;;;;5092808;28;20382;-77
2023/03/07 04:52:19;;;;;;;9.73;7.30;;;4.40;99.90;;;;;;5094150;28;20381;-78
2023/03/07 04:54:44;;;;;;;7.80;6.67;;;4.40;99.90;;;;;;5093454;28;20879;-78
2023/03/07 04:57:10;;;;;;;9.60;7.60;;;4.30;99.90;;;;;;5093374;28;20814;-78
2023/03/07 04:59:38;;;;;;;9.63;7.97;;;4.20;99.90;;;;;;5093839;28;20382;-78
2023/03/07 05:02:05;;;;;;;10.10;7.70;;;4.40;1.00;;;;;;5093958;28;20511;-78
2023/03/07 05:04:31;;;;;;;8.48;7.32;;;4.40;1.00;;;;;;5093743;28;20370;-79
2023/03/07 05:06:57;;;;;;;8.30;7.35;;;4.40;99.90;;;;;;5093526;28;20386;-78
2023/03/07 05:09:22;;;;;;;8.45;7.30;;;4.40;99.90;;;;;;5093590;28;20385;-77
2023/03/07 05:11:48;;;;;;;10.73;8.20;;;4.50;1.00;;;;;;5092022;28;20772;-78
2023/03/07 05:14:13;;;;;;;9.50;7.32;;;4.30;1.00;;;;;;5093749;28;20381;-78
2023/03/07 05:16:39;;;;;;;8.90;7.05;;;4.50;99.90;;;;;;5093563;28;20386;-78
2023/03/07 05:19:05;;;;;;;9.43;7.35;;;4.70;1.00;;;;;;5093479;28;20382;-77
2023/03/07 05:21:31;;;;;;;11.20;8.07;;;4.40;99.90;;;;;;5093582;28;20506;-78
2023/03/07 05:23:56;;;;;;;9.30;7.67;;;4.60;1.00;;;;;;5093763;28;20424;-78
2023/03/07 05:26:22;;;;;;;11.77;7.80;;;4.70;1.00;;;;;;5092933;28;20422;-78
2023/03/07 05:28:48;;;;;;;11.10;7.90;;;4.50;1.00;;;;;;5093054;28;20425;-78
2023/03/07 05:31:13;;;;;;;10.32;8.02;;;4.70;99.90;;;;;;5093447;28;20405;-78
2023/03/07 05:33:41;;;;;;;9.85;7.30;;;;;;;;;;5091933;28;20764;-78
2023/03/07 05:36:07;;;;;;;11.40;7.82;;;4.60;99.90;;;;;;5093077;28;20389;-78
2023/03/07 05:38:33;;;;;;;11.75;8.30;;;4.40;1.00;;;;;;5093015;28;20425;-78
2023/03/07 05:40:59;;;;;;;10.93;8.70;;;4.50;99.90;;;;;;5093009;28;20402;-78
2023/03/07 05:43:25;;;;;;;10.50;8.40;;;4.60;99.90;;;;;;5091539;28;20413;-78
2023/03/07 05:45:50;;;;;;;15.60;9.90;;;4.30;1.00;;;;;;5091348;28;20398;-78
2023/03/07 05:48:16;;;;;;;20.77;14.30;;;4.40;99.90;;;;;;5093064;28;20382;-77
2023/03/07 05:50:41;;;;;;;20.07;14.67;;;4.30;1.00;;;;;;5093920;28;20409;-77
2023/03/07 05:53:07;;;;;;;17.38;11.48;;;4.40;1.00;;;;;;5091758;28;20416;-78
2023/03/07 05:55:33;;;;;;;11.07;8.48;;;;;;;;;;5092622;28;20748;-78
2023/03/07 05:57:59;;;;;;;12.00;8.35;;;4.50;99.90;;;;;;5090777;28;20424;-79
2023/03/07 06:00:25;;;;;;;12.75;9.10;;;4.50;99.90;;;;;;5092800;28;20401;-78
2023/03/07 06:02:50;;;;;;;9.97;7.60;;;4.80;99.90;;;;;;5092770;28;20978;-78
2023/03/07 06:05:16;;;;;;;10.07;7.90;;;4.40;99.90;;;;;;5092192;28;20450;-77
2023/03/07 06:07:42;;;;;;;12.07;8.27;;;4.50;1.00;;;;;;5093217;28;20943;-76
2023/03/07 06:10:09;;;;;;;10.20;7.72;;;4.50;1.00;;;;;;5092234;28;20473;-77
2023/03/07 06:12:35;;;;;;;8.70;7.32;;;4.40;1.00;;;;;;5093551;28;20390;-79
2023/03/07 06:15:00;;;;;;;10.73;7.80;;;4.40;1.00;;;;;;5095225;28;20465;-79
2023/03/07 06:17:26;;;;;;;11.30;7.87;;;4.30;99.90;;;;;;5094301;28;21138;-80
2023/03/07 06:19:51;;;;;;;11.07;8.03;;;4.40;99.90;;;;;;5095598;28;20778;-79
2023/03/07 06:22:17;;;;;;;9.50;7.00;;;4.50;99.90;;;;;;5095605;28;20374;-79
2023/03/07 06:24:42;;;;;;;9.40;7.33;;;4.50;99.90;;;;;;5093768;28;20385;-80
2023/03/07 06:27:08;;;;;;;10.37;7.27;;;4.40;99.90;;;;;;5094907;28;20386;-79
2023/03/07 06:29:34;;;;;;;10.10;7.60;;;4.60;99.90;;;;;;5094930;28;20451;-79
2023/03/07 06:31:59;;;;;;;9.18;7.57;;;4.50;99.90;;;;;;5095002;28;20414;-79
2023/03/07 06:34:25;;;;;;;9.68;7.53;;;4.60;99.90;;;;;;5094515;28;20396;-78
2023/03/07 06:36:50;;;;;;;10.95;7.50;;;4.60;99.90;;;;;;5093287;28;20378;-80
2023/03/07 06:39:19;;;;;;;8.23;6.70;;;4.40;39.70;;;;;;5095475;28;20378;-79
2023/03/07 06:41:47;;;;;;;8.50;6.97;;;4.50;1.00;;;;;;5094248;28;20442;-78
2023/03/07 06:44:12;;;;;;;8.65;6.60;;;4.60;99.90;;;;;;5093868;28;20871;-78
2023/03/07 06:46:38;;;;;;;9.37;6.83;;;4.20;1.00;;;;;;5095085;28;20424;-78
2023/03/07 06:49:03;;;;;;;10.20;6.73;;;4.90;99.90;;;;;;5093601;28;20390;-78
2023/03/07 06:51:29;;;;;;;9.30;6.83;;;4.30;1.00;;;;;;5093513;28;20386;-79
2023/03/07 06:53:54;;;;;;;8.10;6.90;;;4.50;1.00;;;;;;5094384;28;20391;-78
2023/03/07 06:56:20;;;;;;;8.10;6.18;;;4.30;1.00;;;;;;5093247;28;20401;-79
2023/03/07 06:58:45;;;;;;;8.15;6.88;;;4.40;1.00;;;;;;5093191;28;20393;-79
2023/03/07 07:01:15;;;;;;;7.82;6.75;;;4.70;99.90;;;;;;5093259;28;20927;-79
2023/03/07 07:03:41;;;;;;;9.00;6.53;;;4.40;1.00;;;;;;5095644;28;20461;-79
2023/03/07 07:06:07;;;;;;;9.83;6.90;;;4.40;93.20;;;;;;5095233;28;20516;-79
2023/03/07 07:08:32;;;;;;;8.07;6.33;;;4.60;1.00;;;;;;5095283;28;20389;-79
2023/03/07 07:10:58;;;;;;;8.03;6.77;;;4.50;1.00;;;;;;5094430;28;20394;-79
2023/03/07 07:13:24;;;;;;;8.73;6.35;;;4.70;1.00;;;;;;5095519;28;20729;-78
2023/03/07 07:15:49;;;;;;;9.90;6.30;;;4.70;1.00;;;;;;5093030;28;20489;-79
2023/03/07 07:18:15;;;;;;;10.10;7.27;;;4.80;1.00;;;;;;5092894;28;20385;-78
2023/03/07 07:20:40;;;;;;;7.93;6.33;;;4.60;1.00;;;;;;5092928;28;20405;-78
2023/03/07 07:23:06;;;;;;;8.70;6.47;;;5.00;1.00;;;;;;5092641;28;20922;-78
2023/03/07 07:25:31;;;;;;;9.53;6.77;;;4.50;1.00;;;;;;5092604;28;20477;-78
2023/03/07 07:27:57;;;;;;;9.50;6.70;;;4.80;1.00;;;;;;5092661;28;20370;-78
2023/03/07 07:30:22;;;;;;;9.20;6.43;;;4.90;1.00;;;;;;5092168;28;20398;-78
2023/03/07 07:32:48;;;;;;;10.10;6.70;;;4.80;1.00;;;;;;5093366;28;20422;-78
2023/03/07 07:35:13;;;;;;;8.33;6.70;;;4.70;1.00;;;;;;5091122;28;20883;-78
2023/03/07 07:37:39;;;;;;;6.73;6.03;;;4.90;1.00;;;;;;5092682;28;20509;-78
2023/03/07 07:40:05;;;;;;;7.27;6.07;;;4.80;1.00;;;;;;5092797;28;20442;-79
2023/03/07 07:42:31;;;;;;;9.52;6.25;;;5.00;1.00;;;;;;5095060;28;20385;-78
2023/03/07 07:44:56;;;;;;;9.02;6.03;;;4.90;1.00;;;;;;5095225;28;20398;-80
2023/03/07 07:47:22;;;;;;;8.65;5.85;;;4.90;1.00;;;;;;5094144;28;20382;-78
2023/03/07 07:49:48;;;;;;;8.70;6.60;;;4.90;1.00;;;;;;5093558;28;20775;-79
2023/03/07 07:52:13;;;;;;;8.75;6.00;;;4.70;1.00;;;;;;5093284;28;20396;-79
2023/03/07 07:54:39;;;;;;;7.82;6.22;;;4.90;1.00;;;;;;5094704;28;20418;-79
2023/03/07 07:57:04;;;;;;;7.95;6.05;;;4.80;1.00;;;;;;5089372;28;20392;-79
2023/03/07 07:59:32;;;;;;;7.25;5.93;;;4.70;99.90;;;;;;5074418;28;20865;-79
2023/03/07 08:01:58;;;;;;;7.03;5.75;;;5.00;99.90;;;;;;5081921;28;20802;-78
2023/03/07 08:04:24;;;;;;;8.27;6.23;;;5.00;99.90;;;;;;5091001;28;20419;-77
2023/03/07 08:06:51;;;;;;;8.35;6.13;;;5.00;99.90;;;;;;5092313;28;20394;-78
2023/03/07 08:09:16;;;;;;;6.13;5.53;;;5.00;99.90;;;;;;5092556;28;20386;-78
2023/03/07 08:11:42;;;;;;;7.47;5.53;;;4.40;99.90;;;;;;5092885;28;20451;-77
2023/03/07 08:14:08;;;;;;;7.43;5.70;;;5.10;99.90;;;;;;5093341;28;20444;-78
2023/03/07 08:16:34;;;;;;;6.93;5.43;;;4.70;99.90;;;;;;5093035;28;20385;-78
2023/03/07 08:19:00;;;;;;;6.87;5.50;;;4.90;99.90;;;;;;5092668;28;21028;-78
2023/03/07 08:21:26;;;;;;;6.72;5.60;;;5.30;99.90;;;;;;5091648;28;20398;-78
2023/03/07 08:23:55;;;;;;;11.48;7.32;;;5.60;1.00;;;;;;5093577;28;20913;-80
2023/03/07 08:26:21;;;;;;;12.85;7.80;;;5.40;1.00;;;;;;5091025;28;20382;-79
2023/03/07 08:28:47;;;;;;;9.25;7.10;;;5.40;1.00;;;;;;5092760;28;20457;-78
2023/03/07 08:31:18;;;;;;;10.67;7.40;;;5.40;99.90;;;;;;5090825;28;20421;-78
2023/03/07 08:33:47;;;;;;;7.70;6.25;;;5.40;99.90;;;;;;5092580;28;20409;-79
2023/03/07 08:36:13;;;;;;;7.93;5.68;;;5.00;99.90;;;;;;5092314;28;20882;-78
2023/03/07 08:38:39;;;;;;;8.63;6.93;;;5.50;99.90;;;;;;5091450;28;20394;-78
2023/03/07 08:41:06;;;;;;;10.37;6.50;;;5.40;99.90;;;;;;5090998;28;20406;-79
2023/03/07 08:43:35;;;;;;;9.75;6.60;;;5.50;1.00;;;;;;5092876;28;20385;-79
2023/03/07 08:46:03;;;;;;;8.65;7.00;;;5.30;99.90;;;;;;5092024;28;20384;-79
2023/03/07 08:48:29;;;;;;;9.32;6.95;;;5.80;99.90;;;;;;5093698;28;20421;-79
2023/03/07 08:50:55;;;;;;;8.55;6.85;;;5.50;99.90;;;;;;5093788;28;20398;-78
2023/03/07 08:53:21;;;;;;;10.18;7.50;;;5.50;99.90;;;;;;5093136;28;20385;-79
2023/03/07 08:55:47;;;;;;;9.63;6.97;;;;;;;;;;5093747;28;20403;-80
2023/03/07 08:58:13;;;;;;;10.27;7.20;;;5.50;99.90;;;;;;5085131;28;20415;-79
2023/03/07 09:00:39;;;;;;;10.85;8.30;;;5.60;1.00;;;;;;5076010;28;20404;-79
2023/03/07 09:03:05;;;;;;;9.88;8.10;;;5.60;1.00;;;;;;5084934;28;20443;-79
2023/03/07 09:05:32;;;;;;;10.13;8.00;;;5.30;99.90;;;;;;5094273;28;20435;-79
2023/03/07 09:07:57;;;;;;;11.10;8.30;;;5.70;99.90;;;;;;5094462;28;20795;-79
2023/03/07 09:10:23;;;;;;;8.43;7.33;;;5.60;99.90;;;;;;5093118;28;20417;-79
2023/03/07 09:12:50;;;;;;;9.77;7.65;;;;;;;;;;5093594;28;20461;-79
2023/03/07 09:15:16;;;;;;;8.15;6.50;;;5.60;99.90;;;;;;5096697;28;20446;-79
2023/03/07 09:17:42;;;;;;;8.45;7.32;;;5.20;99.90;;;;;;5096475;28;20405;-80
2023/03/07 09:20:09;;;;;;;11.18;7.38;;;5.70;99.90;;;;;;5097114;28;20398;-79
2023/03/07 09:22:34;;;;;;;8.63;6.85;;;5.60;99.90;;;;;;5076328;28;20541;-80
2023/03/07 09:25:00;;;;;;;10.57;7.87;;;5.90;1.00;;;;;;5085973;28;20427;-79
2023/03/07 09:27:25;;;;;;;8.90;6.77;;;5.60;1.00;;;;;;5098972;28;20392;-80
2023/03/07 09:29:51;;;;;;;9.30;7.50;;;5.50;99.90;;;;;;5100765;28;20378;-78
2023/03/07 09:32:17;;;;;;;9.67;7.70;;;5.80;99.90;;;;;;5100177;28;20415;-79
2023/03/07 09:34:42;;;;;;;10.13;6.97;;;5.70;99.90;;;;;;5102161;28;20918;-79
2023/03/07 09:37:08;;;;;;;9.40;7.20;;;5.80;99.90;;;;;;5104720;28;20386;-79
2023/03/07 09:39:34;;;;;;;11.60;7.18;;;5.70;99.90;;;;;;5106686;28;20381;-79
2023/03/07 09:42:17;;;;;;;9.90;7.90;;;5.80;1.00;;;;;;5095904;28;20426;-80
2023/03/07 09:44:58;;;;;;;8.18;7.38;;;5.90;99.90;;;;;;5094683;28;20405;-78
2023/03/07 09:47:49;;;;;;;11.10;7.70;;;5.80;99.90;;;;;;5096342;28;20374;-79
2023/03/07 09:50:25;;;;;;;12.43;8.35;;;5.70;99.90;;;;;;5095983;28;20745;-79
2023/03/07 09:52:57;;;;;;;10.45;7.60;;;6.00;99.90;;;;;;5075998;28;20399;-81
2023/03/07 09:55:24;;;;;;;11.40;8.23;;;5.80;1.00;;;;;;5074954;28;20379;-79
2023/03/07 09:57:54;;;;;;;9.43;7.60;;;5.90;99.90;;;;;;5085548;28;20398;-80
2023/03/07 10:00:26;;;;;;;10.88;7.43;;;6.00;99.90;;;;;;5096712;28;20398;-79
2023/03/07 10:03:01;;;;;;;8.73;7.10;;;5.80;99.90;;;;;;5095887;28;20370;-80
2023/03/07 10:05:47;;;;;;;10.35;7.90;;;5.90;1.00;;;;;;5101447;28;20378;-79
2023/03/07 10:08:18;;;;;;;10.50;7.95;;;5.80;1.00;;;;;;5105743;28;20407;-80
2023/03/07 10:11:05;;;;;;;11.32;7.50;;;5.60;99.90;;;;;;5098597;28;20401;-80
2023/03/07 10:14:00;;;;;;;9.77;7.30;;;5.80;99.90;;;;;;5095273;28;20772;-80
2023/03/07 10:16:37;;;;;;;10.02;7.88;;;6.00;99.90;;;;;;5095357;28;20382;-79
2023/03/07 10:19:24;;;;;;;9.65;7.28;;;6.00;99.90;;;;;;5094119;28;20776;-80
2023/03/07 10:21:59;;;;;;;10.45;7.90;;;6.60;99.90;;;;;;5095326;28;20390;-80
2023/03/07 10:24:49;;;;;;;10.80;8.10;;;6.20;99.90;;;;;;5094356;28;20397;-80
2023/03/07 10:27:15;;;;;;;9.47;7.03;;;6.20;99.90;;;;;;5094937;28;20393;-80
2023/03/07 10:29:49;;;;;;;9.23;7.47;;;6.20;1.00;;;;;;5093817;28;20390;-80
2023/03/07 10:32:37;;;;;;;10.55;7.05;;;6.10;99.90;;;;;;5094759;28;20436;-80
2023/03/07 10:35:12;;;;;;;11.00;8.38;;;6.30;99.90;;;;;;5099807;28;20416;-79
2023/03/07 10:37:49;;;;;;;11.43;8.70;;;6.40;99.90;;;;;;5106786;28;20378;-78
2023/03/07 10:40:17;;;;;;;10.18;7.65;;;6.20;99.90;;;;;;5108970;28;20429;-79
2023/03/07 10:42:42;;;;;;;8.80;7.22;;;6.40;99.90;;;;;;5108953;28;20408;-79
2023/03/07 10:45:14;;;;;;;8.80;7.03;;;6.40;99.90;;;;;;5105020;28;20386;-78
2023/03/07 10:47:40;;;;;;;9.10;7.20;;;6.50;99.90;;;;;;5096564;28;20378;-80
2023/03/07 10:50:22;;;;;;;10.00;7.50;;;6.60;99.90;;;;;;5095644;28;20390;-79
2023/03/07 10:52:52;;;;;;;8.27;6.82;;;6.60;99.90;;;;;;5094445;28;20389;-81
2023/03/07 10:55:41;;;;;;;10.38;8.07;;;6.90;99.90;;;;;;5094260;28;20465;-80
2023/03/07 10:58:27;;;;;;;11.80;8.23;;;6.70;99.90;;;;;;5095023;28;20461;-79
2023/03/07 11:01:14;;;;;;;10.20;7.70;;;6.70;99.90;;;;;;5094912;28;20601;-79
2023/03/07 11:03:45;;;;;;;10.25;8.07;;;6.80;99.90;;;;;;5095031;28;20390;-79
2023/03/07 11:06:34;;;;;;;8.82;7.18;;;6.60;99.90;;;;;;5095863;28;20407;-79
2023/03/07 11:09:13;;;;;;;7.65;6.30;;;6.60;99.90;;;;;;5095955;28;20717;-79
2023/03/07 11:11:39;;;;;;;8.97;6.90;;;6.50;99.90;;;;;;5094750;28;20382;-80
2023/03/07 11:14:10;;;;;;;8.63;6.60;;;6.50;99.90;;;;;;5094218;28;20394;-79
2023/03/07 11:16:41;;;;;;;13.50;8.30;;;6.40;99.90;;;;;;5093438;28;20393;-79
2023/03/07 11:19:34;;;;;;;8.30;6.75;;;6.90;99.90;;;;;;5096906;28;20508;-78
2023/03/07 11:22:03;;;;;;;9.45;7.10;;;7.00;99.90;;;;;;5096733;28;20413;-79
2023/03/07 11:24:34;;;;;;;8.60;7.30;;;6.60;99.90;;;;;;5096366;28;20386;-79
2023/03/07 11:27:00;;;;;;;9.38;7.00;;;6.40;99.90;;;;;;5094508;28;20374;-80
2023/03/07 11:29:27;;;;;;;8.05;6.65;;;6.60;99.90;;;;;;5094401;28;20382;-80
2023/03/07 11:31:58;;;;;;;8.73;6.88;;;6.70;99.90;;;;;;5104706;28;20390;-79
2023/03/07 11:34:42;;;;;;;7.55;6.20;;;6.60;99.90;;;;;;5106157;28;20398;-79
2023/03/07 11:37:36;;;;;;;10.10;6.50;;;6.70;56.10;;;;;;5100172;28;20847;-80
2023/03/07 11:40:43;;;;;;;7.63;6.28;;;6.70;47.30;;;;;;5092644;28;20412;-80
2023/03/07 11:43:21;;;;;;;10.10;7.50;;;6.80;99.90;;;;;;5080505;28;20390;-79
2023/03/07 11:46:13;;;;;;;8.43;6.32;;;6.80;75.90;;;;;;5095416;28;20377;-79
2023/03/07 11:49:07;;;;;;;7.53;5.40;;;6.80;30.10;;;;;;5071901;28;20412;-80
2023/03/07 11:51:58;;;;;;;8.32;6.07;;;6.90;99.90;;;;;;5093926;28;20527;-81
2023/03/07 11:54:43;;;;;;;7.97;5.85;;;6.90;99.90;;;;;;5094811;28;20382;-79
2023/03/07 11:57:25;;;;;;;7.63;6.03;;;7.50;93.60;;;;;;5087816;28;20473;-79
2023/03/07 12:00:11;;;;;;;8.30;7.00;;;7.40;19.70;;;;;;5071658;28;20394;-81
2023/03/07 12:02:58;;;;;;;9.60;6.10;;;7.60;13.50;;;;;;5072476;28;20469;-80
2023/03/07 12:05:58;;;;;;;7.63;5.87;;;7.40;99.90;;;;;;5078177;28;20458;-82
2023/03/07 12:08:29;;;;;;;7.55;6.22;;;7.40;11.20;;;;;;5069179;28;20479;-80
2023/03/07 12:11:13;;;;;;;7.82;6.60;;;7.50;99.90;;;;;;5091708;28;20388;-80
2023/03/07 12:13:57;;;;;;;6.97;6.18;;;7.90;96.20;;;;;;5093885;28;20894;-80
2023/03/07 12:16:40;;;;;;;8.43;5.90;;;7.50;2.60;;;;;;5091693;28;20417;-80
2023/03/07 12:19:18;;;;;;;8.40;6.63;;;8.00;89.60;;;;;;5091957;28;20523;-80
2023/03/07 12:22:24;;;;;;;8.20;6.15;;;7.60;1.00;;;;;;5097345;28;20891;-79
2023/03/07 12:25:22;;;;;;;9.20;6.40;;;7.90;99.90;;;;;;5076552;28;20375;-79
2023/03/07 12:28:02;;;;;;;8.27;6.00;;;8.50;99.90;;;;;;5087705;28;20397;-81
2023/03/07 12:30:43;;;;;;;7.28;6.43;;;9.10;1.00;;;;;;5095558;28;20381;-80
2023/03/07 12:33:24;;;;;;;7.35;5.80;;;9.70;39.70;;;;;;5092897;28;20398;-79
2023/03/07 12:35:54;;;;;;;8.20;6.03;;;9.70;1.00;;;;;;5093707;28;20439;-79
2023/03/07 12:38:40;;;;;;;10.87;6.70;;;10.30;28.00;;;;;;5093722;28;20407;-79
2023/03/07 12:41:41;;;;;;;8.35;6.38;;;10.30;99.90;;;;;;5094089;28;21029;-79
2023/03/07 12:44:16;;;;;;;7.65;6.85;;;9.60;99.90;;;;;;5089990;28;20797;-79
2023/03/07 12:46:50;;;;;;;8.43;7.28;;;10.10;13.10;;;;;;5074029;28;20433;-80
2023/03/07 12:49:23;;;;;;;9.70;8.15;;;10.80;99.90;;;;;;5077410;28;20819;-79
2023/03/07 12:51:54;;;;;;;8.25;7.15;;;10.20;99.90;;;;;;5076188;28;20388;-78
2023/03/07 12:54:28;;;;;;;9.40;7.22;;;9.50;17.00;;;;;;5077457;28;20383;-79
2023/03/07 12:57:27;;;;;;;10.23;7.55;;;9.70;18.00;;;;;;5089339;28;20395;-79
2023/03/07 13:00:00;;;;;;;10.65;7.22;;;10.60;99.90;;;;;;5077029;28;20384;-79
2023/03/07 13:02:36;;;;;;;10.70;7.90;;;11.70;1.00;;;;;;5095522;28;20398;-79
2023/03/07 13:05:03;;;;;;;9.60;7.00;;;11.50;1.00;;;;;;5097027;28;20454;-81
2023/03/07 13:07:31;;;;;;;10.70;7.57;;;11.20;1.00;;;;;;5097486;28;20381;-81
2023/03/07 13:09:58;;;;;;;8.88;7.00;;;10.30;1.00;;;;;;5097568;28;20378;-80
2023/03/07 13:12:28;;;;;;;7.70;6.78;;;10.60;1.00;;;;;;5097647;28;20386;-79